WEATHER DATA

TODAY
Time Temp. Dewp. Hum. Wind dir Wind speed Wind gust Bar.
00:03 -0.7 -1.2 96 0 0 1023.7
00:13 -0.8 -1.3 96 0 0 1023.7
00:22 -0.8 -1.2 97 0 0 1023.6
00:33 -0.8 -1.2 97 0 0 1023.5
00:43 -0.8 -1.2 97 0 0 1023.4
00:53 -0.7 -1.1 97 0 0 1023.4
01:02 -0.7 -1.1 97 0 0 1023.3
01:13 -0.7 -1.1 97 0 0 1023.3
01:23 -0.7 -1.1 97 0 0 1023.3
01:33 -0.7 -1.1 97 0 0 1023.3
01:43 -0.7 -1.1 97 0 0 1023
01:53 -0.7 -1.1 97 0 0 1022.9
02:03 -0.6 -1 97 0 0 1022.9
02:13 -0.6 -1 97 0 0 1022.7
02:24 -0.6 -1 97 0 0 1022.7
02:33 -0.6 -1 97 0 0 1022.6
02:43 -0.6 -1 97 0 0 1022.4
02:54 -0.6 -1 97 0 0 1022.2
03:04 -0.6 -1 97 0 0 1022.1
03:13 -0.6 -1 97 0 0 1022
03:23 -0.6 -1 97 0 0 1022
03:34 -0.6 -0.8 98 0 0 1021.6
03:44 -0.6 -0.8 98 0 0 1021.5
03:54 -0.6 -0.8 98 0 0 1021.3
04:04 -0.6 -0.8 98 0 0 1021
04:14 -0.6 -0.8 98 0 0 1020.5
04:24 -0.6 -0.8 98 0 0 1020.4
04:34 -0.6 -0.8 98 0 0 1020.2
04:44 -0.5 -0.7 98 0 0 1020.2
04:54 -0.5 -0.7 98 0 0 1020.2
05:04 -0.5 -0.7 98 0 0 1020.1
05:15 -0.5 -0.7 98 0 0 1019.9
05:24 -0.4 -0.6 98 0 0 1019.6
05:34 -0.4 -0.8 97 0 0 1019.4
05:44 -0.4 -0.8 97 0 0 1019.3
05:55 -0.3 -0.7 97 0 0 1019.2
06:05 -0.3 -0.7 97 0 0 1019
06:14 -0.3 -0.7 97 0 0 1018.8
06:25 -0.3 -0.7 97 0 0 1018.6
06:35 -0.3 -0.7 97 0 0 1018.3
06:45 -0.3 -0.8 96 0 0 1018.1
06:55 -0.3 -0.8 96 0 0 1018.3
07:05 -0.3 -0.8 96 0 0 1018.6
07:15 -0.3 -0.8 96 0 0 1018.7
07:25 -0.3 -0.8 96 0 0 1018.7
07:35 -0.3 -0.8 96 0 0 1018.9
07:45 -0.3 -0.9 95 0 0 1018.1
07:55 -0.4 -1 95 0 0 1018
08:05 -0.4 -1 95 0 0 1018.2
08:15 -0.4 -1 95 0 0 1018.4
08:25 -0.5 -1.1 95 0 0 1018.1
08:35 -0.6 -1.2 95 0 0 1018.1
08:46 -0.6 -1.2 95 0 0 1018.1
08:56 -0.6 -1.2 95 0 0 1018.2
09:05 -0.6 -1.3 94 0 0 1018.3
09:16 -0.5 -1.2 94 0 0 1018.1
09:26 -0.4 -1.1 94 0 0 1018
09:36 -0.3 -1.2 93 0 0 1017.7
09:45 -0.2 -1.1 93 0 0 1017.4
09:56 -0.1 -1 93 0 0 1017.2
10:06 0.1 -0.9 92 0 0 1017.1
10:16 0.3 -0.7 92 0 0 1017.3
10:26 0.5 -0.6 92 0 0 1017.4
10:36 0.6 -0.6 91 0 0 1017.4
10:46 0.9 -0.5 90 0 0 1017.3
10:56 1.1 -0.3 90 0 0 1017
11:07 1 -0.5 89 0 0 1016.9
11:16 0.9 -0.6 89 0 0 1016.9
11:26 0.9 -0.6 89 0 0 1016.6
11:36 1 -0.4 90 0 0 1016.6
11:47 1 -0.4 90 0 0 1016.4
11:56 1 -0.4 90 0 0 1016.4
12:06 1.1 -0.3 90 0 0 1016.4
12:17 1.2 -0.1 91 0 0 1016.2
12:27 1.3 0 91 0 0 1016.1
12:36 1.4 0.1 91 0 0 1016
12:47 1.4 0.1 91 0 0 1016.1
12:57 1.4 0.1 91 0 0 1016
13:07 1.4 0.1 91 0 0 1016.1
13:17 1.4 0.2 92 0 0 1015.9
13:27 1.5 0.3 92 0 0 1015.8
13:37 1.5 0.3 92 0 0 1015.6
13:47 1.5 0.3 92 0 0 1015.6
13:57 1.5 0.5 93 0 0 1015.3
14:07 1.5 0.5 93 0 0 1015.2
14:17 1.5 0.6 94 0 0 1015.1
14:27 1.5 0.6 94 0 0 1015.2
14:38 1.6 0.7 94 0 0 1015.1
14:47 1.6 0.7 94 0 0 1015.1
14:57 1.6 0.6 93 0 0 1015.2
15:08 1.5 0.5 93 0 0 1015.1
15:18 1.4 0.5 94 0 0 1015.1
15:28 1.4 0.7 95 0 0 1015
15:37 1.3 0.6 95 0 0 1015.1
15:48 1.2 0.6 96 0 0 1015.1
15:58 1.1 0.7 97 0 0 1015.2
16:08 1.1 0.8 98 0 0 1015.2
16:18 1.2 0.9 98 0 0 1015.2
16:28 1.2 0.8 97 0 0 1015.3
16:38 1.3 0.9 97 0 0 1015.2
16:48 1.3 1 98 0 0 1015.1
16:58 1.4 1.1 98 0 0 1015.1
17:08 1.5 1.2 98 0 0 1015
17:18 1.6 1.3 98 0 0 1014.9
17:29 1.6 1.2 97 0 0 1014.9
17:39 1.6 1.2 97 0 0 1014.8
17:48 1.7 1.3 97 0 0 1014.7
17:58 1.7 1.1 96 0 0 1014.7
18:09 1.8 1.2 96 0 0 1014.6
18:19 1.8 1.1 95 0 0 1014.6
18:28 1.8 1.1 95 0 0 1014.6
18:39 1.9 1.2 95 0 0 1014.6
18:49 2.1 1.2 94 0 0 1014.4
18:59 2.1 1.1 93 0 0 1014.3

DAY STATISTIC

2022-01-27
TEMPERATURE
AVERAGE
0.4
HIGH
2.1
18:49
LOW
-0.8
00:13
PRESSURE
AVERAGE
1018.1
HIGH
1023.7
00:03
LOW
1014.3
18:59
DEWPOINT
AVERAGE
-0.3
HIGH
1.3
17:18
LOW
-1.3
00:13
HUMIDITY
AVERAGE
95
HIGH
98
03:34
LOW
89
11:07
WIND SPEED
AVERAGE
0.0
HIGH
0.0
18:17
WIND GUST
AVERAGE
0.0
HIGH
0.0
18:17
WIND DIRECTION
PREVAILING
%
TEMPERATURE (°C)
LOW
-0.8
HIGH
2.1
AVERAGE
0.4
PRESSURE (hpa)
LOW
1014.3
HIGH
1023.7
AVERAGE
1018.1
DEVICE